createdAt,value
2017-03-11T00:00:03.139Z,1018.49
2017-03-11T00:01:04.370Z,1018.5
2017-03-11T00:02:05.642Z,1018.45
2017-03-11T00:03:06.926Z,1018.47
2017-03-11T00:04:08.324Z,1018.45
2017-03-11T00:05:09.559Z,1018.47
2017-03-11T00:06:10.805Z,1018.45
2017-03-11T00:07:12.064Z,1018.41
2017-03-11T00:08:13.290Z,1018.41
2017-03-11T00:09:14.661Z,1018.4
2017-03-11T00:10:15.936Z,1018.39
2017-03-11T00:11:17.222Z,1018.4
2017-03-11T00:12:18.445Z,1018.38
2017-03-11T00:13:19.703Z,1018.33
2017-03-11T00:14:20.967Z,1018.32
2017-03-11T00:15:22.495Z,1018.34
2017-03-11T00:16:23.747Z,1018.37
2017-03-11T00:17:24.984Z,1018.36
2017-03-11T00:18:26.243Z,1018.34
2017-03-11T00:19:27.501Z,1018.4
2017-03-11T00:20:28.753Z,1018.38
2017-03-11T00:21:29.999Z,1018.37
2017-03-11T00:22:31.284Z,1018.38
2017-03-11T00:23:32.517Z,1018.3
2017-03-11T00:24:33.760Z,1018.35
2017-03-11T00:25:35.106Z,1018.28
2017-03-11T00:26:36.376Z,1018.29
2017-03-11T00:27:37.588Z,1018.28
2017-03-11T00:28:38.816Z,1018.28
2017-03-11T00:29:40.056Z,1018.25
2017-03-11T00:30:41.292Z,1018.27
2017-03-11T00:31:42.612Z,1018.31
2017-03-11T00:32:43.896Z,1018.27
2017-03-11T00:33:45.174Z,1018.26
2017-03-11T00:34:46.404Z,1018.28
2017-03-11T00:35:47.739Z,1018.28
2017-03-11T00:36:49.023Z,1018.32
2017-03-11T00:37:50.448Z,1018.25
2017-03-11T00:38:51.706Z,1018.26
2017-03-11T00:39:53.040Z,1018.27
2017-03-11T00:40:54.336Z,1018.27
2017-03-11T00:41:55.623Z,1018.29
2017-03-11T00:42:56.955Z,1018.26
2017-03-11T00:43:58.273Z,1018.3
2017-03-11T00:44:59.613Z,1018.32
2017-03-11T00:46:00.887Z,1018.37
2017-03-11T00:47:02.174Z,1018.37
2017-03-11T00:48:03.449Z,1018.39
2017-03-11T00:49:04.803Z,1018.41
2017-03-11T00:50:06.054Z,1018.42
2017-03-11T00:51:07.344Z,1018.42
2017-03-11T00:52:08.648Z,1018.41
2017-03-11T00:53:09.872Z,1018.42
2017-03-11T00:54:11.127Z,1018.41
2017-03-11T00:55:12.439Z,1018.39
2017-03-11T00:56:13.829Z,1018.42
2017-03-11T00:57:15.141Z,1018.41
2017-03-11T00:58:16.388Z,1018.43
2017-03-11T00:59:17.656Z,1018.43
2017-03-11T01:00:18.949Z,1018.41
2017-03-11T01:01:20.225Z,1018.41
2017-03-11T01:02:21.509Z,1018.42
2017-03-11T01:03:22.797Z,1018.4
2017-03-11T01:04:24.172Z,1018.4
2017-03-11T01:05:25.491Z,1018.42
2017-03-11T01:06:26.782Z,1018.33
2017-03-11T01:07:28.179Z,1018.3
2017-03-11T01:08:29.584Z,1018.3
2017-03-11T01:09:30.846Z,1018.31
2017-03-11T01:10:32.105Z,1018.32
2017-03-11T01:11:33.418Z,1018.25
2017-03-11T01:12:34.672Z,1018.26
2017-03-11T01:13:36.055Z,1018.21
2017-03-11T01:14:37.304Z,1018.19
2017-03-11T01:15:38.597Z,1018.14
2017-03-11T01:16:39.896Z,1018.11
2017-03-11T01:17:41.160Z,1018.15
2017-03-11T01:18:42.379Z,1018.1
2017-03-11T01:19:43.667Z,1018.07
2017-03-11T01:20:44.919Z,1017.98
2017-03-11T01:21:46.216Z,1018
2017-03-11T01:22:47.518Z,1017.97
2017-03-11T01:23:48.831Z,1017.95
2017-03-11T01:24:50.221Z,1017.93
2017-03-11T01:25:51.569Z,1017.84
2017-03-11T01:26:52.788Z,1017.81
2017-03-11T01:27:54.062Z,1017.79
2017-03-11T01:28:55.321Z,1017.79
2017-03-11T01:29:56.587Z,1017.72
2017-03-11T01:30:57.866Z,1017.75
2017-03-11T01:31:59.134Z,1017.65
2017-03-11T01:33:00.390Z,1017.66
2017-03-11T01:34:01.667Z,1017.6
2017-03-11T01:35:02.948Z,1017.57
2017-03-11T01:36:04.282Z,1017.54
2017-03-11T01:37:05.555Z,1017.54
2017-03-11T01:38:06.844Z,1017.54
2017-03-11T01:39:08.106Z,1017.5
2017-03-11T01:40:09.358Z,1017.44
2017-03-11T01:41:10.699Z,1017.47
2017-03-11T01:42:12.044Z,1017.4
2017-03-11T01:43:13.348Z,1017.43
2017-03-11T01:44:14.606Z,1017.47
2017-03-11T01:45:15.872Z,1017.53
2017-03-11T01:46:17.164Z,1017.51
2017-03-11T01:47:18.419Z,1017.54
2017-03-11T01:48:19.746Z,1017.5
2017-03-11T01:49:20.976Z,1017.49
2017-03-11T01:50:22.244Z,1017.45
2017-03-11T01:51:23.503Z,1017.48
2017-03-11T01:52:24.740Z,1017.45
2017-03-11T01:53:26.009Z,1017.43
2017-03-11T01:54:27.324Z,1017.41
2017-03-11T01:55:28.542Z,1017.4
2017-03-11T01:56:29.814Z,1017.39
2017-03-11T01:57:31.071Z,1017.41
2017-03-11T01:58:32.329Z,1017.42
2017-03-11T01:59:33.591Z,1017.44
2017-03-11T02:00:34.872Z,1017.42
2017-03-11T02:01:36.266Z,1017.41
2017-03-11T02:02:37.525Z,1017.42
2017-03-11T02:03:38.808Z,1017.41
2017-03-11T02:04:40.094Z,1017.4
2017-03-11T02:05:41.380Z,1017.38
2017-03-11T02:06:42.734Z,1017.39
2017-03-11T02:07:44.093Z,1017.38
2017-03-11T02:08:45.349Z,1017.4
2017-03-11T02:09:46.587Z,1017.39
2017-03-11T02:10:47.963Z,1017.41
2017-03-11T02:11:49.142Z,1017.41
2017-03-11T02:12:50.548Z,1017.42
2017-03-11T02:13:51.887Z,1017.35
2017-03-11T02:14:53.211Z,1017.33
2017-03-11T02:15:54.463Z,1017.34
2017-03-11T02:16:55.758Z,1017.33
2017-03-11T02:17:57.054Z,1017.31
2017-03-11T02:18:58.642Z,1017.34
2017-03-11T02:19:59.912Z,1017.3
2017-03-11T02:21:01.170Z,1017.3
2017-03-11T02:22:02.529Z,1017.3
2017-03-11T02:23:03.849Z,1017.22
2017-03-11T02:24:05.113Z,1017.23
2017-03-11T02:25:06.414Z,1017.2
2017-03-11T02:26:07.686Z,1017.19
2017-03-11T02:27:09.057Z,1017.16
2017-03-11T02:28:10.364Z,1017.2
2017-03-11T02:29:11.714Z,1017.21
2017-03-11T02:30:12.987Z,1017.24
2017-03-11T02:31:14.316Z,1017.26
2017-03-11T02:32:15.664Z,1017.23
2017-03-11T02:33:16.977Z,1017.21
2017-03-11T02:34:18.331Z,1017.2
2017-03-11T02:35:19.583Z,1017.22
2017-03-11T02:36:20.856Z,1017.19
2017-03-11T02:37:22.111Z,1017.19
2017-03-11T02:38:23.375Z,1017.16
2017-03-11T02:39:24.705Z,1017.13
2017-03-11T02:40:25.987Z,1017.15
2017-03-11T02:41:27.327Z,1017.09
2017-03-11T02:42:28.678Z,1017.14
2017-03-11T02:43:30.014Z,1017.09
2017-03-11T02:44:31.259Z,1017.1
2017-03-11T02:45:32.509Z,1017.1
2017-03-11T02:46:33.845Z,1017.11
2017-03-11T02:47:35.133Z,1017.07
2017-03-11T02:48:36.472Z,1017.08
2017-03-11T02:49:37.747Z,1017.06
2017-03-11T02:50:38.999Z,1017.05
2017-03-11T02:51:40.269Z,1017.08
2017-03-11T02:52:41.556Z,1017.04
2017-03-11T02:53:42.820Z,1017.04
2017-03-11T02:54:44.071Z,1017.02
2017-03-11T02:55:45.310Z,1016.98
2017-03-11T02:56:46.718Z,1017
2017-03-11T02:57:47.953Z,1017
2017-03-11T02:58:49.191Z,1016.94
2017-03-11T02:59:50.469Z,1016.99
2017-03-11T03:00:51.927Z,1016.96
2017-03-11T03:01:53.154Z,1016.94
2017-03-11T03:02:54.417Z,1016.98
2017-03-11T03:03:55.811Z,1016.94
2017-03-11T03:04:57.079Z,1016.92
2017-03-11T03:05:58.325Z,1016.91
2017-03-11T03:06:59.721Z,1016.88
2017-03-11T03:08:00.948Z,1016.93
2017-03-11T03:09:02.267Z,1016.9
2017-03-11T03:10:03.532Z,1016.91
2017-03-11T03:11:04.876Z,1016.9
2017-03-11T03:12:06.172Z,1016.91
2017-03-11T03:13:07.417Z,1016.91
2017-03-11T03:14:08.751Z,1016.91
2017-03-11T03:15:10.038Z,1016.9
2017-03-11T03:16:11.316Z,1016.92
2017-03-11T03:17:12.682Z,1016.94
2017-03-11T03:18:13.995Z,1016.93
2017-03-11T03:19:15.380Z,1016.94
2017-03-11T03:20:16.674Z,1016.93
2017-03-11T03:21:17.967Z,1016.89
2017-03-11T03:22:19.250Z,1016.92
2017-03-11T03:23:20.525Z,1016.93
2017-03-11T03:24:21.799Z,1016.87
2017-03-11T03:25:23.061Z,1016.92
2017-03-11T03:26:24.369Z,1016.89
2017-03-11T03:27:25.631Z,1016.9
2017-03-11T03:28:26.925Z,1016.9
2017-03-11T03:29:28.223Z,1016.89
2017-03-11T03:30:29.472Z,1016.89
2017-03-11T03:31:30.781Z,1016.9
2017-03-11T03:32:32.082Z,1016.9
2017-03-11T03:33:33.367Z,1016.91
2017-03-11T03:34:34.652Z,1016.91
2017-03-11T03:35:35.955Z,1016.91
2017-03-11T03:36:37.233Z,1016.89
2017-03-11T03:37:38.468Z,1016.88
2017-03-11T03:38:39.842Z,1016.87
2017-03-11T03:39:41.115Z,1016.86
2017-03-11T03:40:42.386Z,1016.82
2017-03-11T03:41:43.744Z,1016.82
2017-03-11T03:42:45.029Z,1016.83
2017-03-11T03:43:46.270Z,1016.82
2017-03-11T03:44:47.621Z,1016.82
2017-03-11T03:45:48.875Z,1016.8
2017-03-11T03:46:50.200Z,1016.84
2017-03-11T03:47:51.484Z,1016.77
2017-03-11T03:48:52.739Z,1016.78
2017-03-11T03:49:54.059Z,1016.74
2017-03-11T03:50:55.275Z,1016.77
2017-03-11T03:51:56.655Z,1016.74
2017-03-11T03:52:58.035Z,1016.73
2017-03-11T03:53:59.412Z,1016.74
2017-03-11T03:55:00.643Z,1016.75
2017-03-11T03:56:01.966Z,1016.76
2017-03-11T03:57:03.224Z,1016.75
2017-03-11T03:58:04.527Z,1016.74
2017-03-11T03:59:05.889Z,1016.78
2017-03-11T04:00:07.205Z,1016.72
2017-03-11T04:01:08.552Z,1016.75
2017-03-11T04:02:09.757Z,1016.73
2017-03-11T04:03:11.114Z,1016.69
2017-03-11T04:04:12.391Z,1016.71
2017-03-11T04:05:13.704Z,1016.71
2017-03-11T04:06:15.041Z,1016.71
2017-03-11T04:07:16.237Z,1016.69
2017-03-11T04:08:17.485Z,1016.72
2017-03-11T04:09:18.742Z,1016.74
2017-03-11T04:10:20.189Z,1016.77
2017-03-11T04:11:21.598Z,1016.72
2017-03-11T04:12:22.859Z,1016.72
2017-03-11T04:13:24.174Z,1016.74
2017-03-11T04:14:25.450Z,1016.73
2017-03-11T04:15:26.720Z,1016.7
2017-03-11T04:16:28.123Z,1016.68
2017-03-11T04:17:29.529Z,1016.64
2017-03-11T04:18:30.862Z,1016.68
2017-03-11T04:19:32.188Z,1016.65
2017-03-11T04:20:33.517Z,1016.63
2017-03-11T04:21:34.829Z,1016.62
2017-03-11T04:22:36.131Z,1016.64
2017-03-11T04:23:37.396Z,1016.63
2017-03-11T04:24:38.712Z,1016.62
2017-03-11T04:25:40.099Z,1016.59
2017-03-11T04:26:41.461Z,1016.6
2017-03-11T04:27:42.772Z,1016.55
2017-03-11T04:28:44.017Z,1016.5
2017-03-11T04:29:45.308Z,1016.5
2017-03-11T04:30:46.627Z,1016.47
2017-03-11T04:31:47.998Z,1016.44
2017-03-11T04:32:49.285Z,1016.49
2017-03-11T04:33:50.581Z,1016.45
2017-03-11T04:34:51.822Z,1016.45
2017-03-11T04:35:53.119Z,1016.49
2017-03-11T04:36:54.525Z,1016.51
2017-03-11T04:37:55.871Z,1016.5
2017-03-11T04:38:57.187Z,1016.53
2017-03-11T04:39:58.407Z,1016.49
2017-03-11T04:40:59.682Z,1016.47
2017-03-11T04:42:01.035Z,1016.47
2017-03-11T04:43:02.347Z,1016.43
2017-03-11T04:44:03.635Z,1016.44
2017-03-11T04:45:05.037Z,1016.44
2017-03-11T04:46:06.398Z,1016.44
2017-03-11T04:47:07.731Z,1016.4
2017-03-11T04:48:09.005Z,1016.46
2017-03-11T04:49:10.260Z,1016.44
2017-03-11T04:50:11.506Z,1016.43
2017-03-11T04:51:12.812Z,1016.43
2017-03-11T04:52:14.088Z,1016.41
2017-03-11T04:53:15.372Z,1016.4
2017-03-11T04:54:16.662Z,1016.39
2017-03-11T04:55:17.915Z,1016.36
2017-03-11T04:56:19.327Z,1016.34
2017-03-11T04:57:20.608Z,1016.3
2017-03-11T04:58:22.122Z,1016.3
2017-03-11T04:59:23.481Z,1016.33
2017-03-11T05:00:24.775Z,1016.31
2017-03-11T05:01:26.112Z,1016.34
2017-03-11T05:02:27.519Z,1016.3
2017-03-11T05:03:28.851Z,1016.29
2017-03-11T05:04:30.181Z,1016.28
2017-03-11T05:05:31.428Z,1016.25
2017-03-11T05:06:32.733Z,1016.23
2017-03-11T05:07:34.179Z,1016.2
2017-03-11T05:08:35.563Z,1016.18
2017-03-11T05:09:36.862Z,1016.16
2017-03-11T05:10:38.152Z,1016.18
2017-03-11T05:11:39.402Z,1016.14
2017-03-11T05:12:40.655Z,1016.14
2017-03-11T05:13:41.982Z,1016.13
2017-03-11T05:14:43.316Z,1016.11
2017-03-11T05:15:44.576Z,1016.14
2017-03-11T05:16:45.870Z,1016.09
2017-03-11T05:17:47.230Z,1016.11
2017-03-11T05:18:48.474Z,1016.08
2017-03-11T05:19:49.813Z,1016.08
2017-03-11T05:20:51.070Z,1016.05
2017-03-11T05:21:52.319Z,1016.05
2017-03-11T05:22:53.637Z,1016.06
2017-03-11T05:23:55.028Z,1016.04
2017-03-11T05:24:56.359Z,1016.03
2017-03-11T05:25:57.669Z,1016.01
2017-03-11T05:26:58.904Z,1015.97
2017-03-11T05:28:00.181Z,1015.94
2017-03-11T05:29:01.500Z,1015.96
2017-03-11T05:30:02.855Z,1015.9
2017-03-11T05:31:04.178Z,1015.92
2017-03-11T05:32:05.450Z,1015.89
2017-03-11T05:33:06.762Z,1015.91
2017-03-11T05:34:08.095Z,1015.89
2017-03-11T05:35:09.436Z,1015.91
2017-03-11T05:36:10.720Z,1015.86
2017-03-11T05:37:12.036Z,1015.87
2017-03-11T05:38:13.320Z,1015.85
2017-03-11T05:39:14.586Z,1015.85
2017-03-11T05:40:15.834Z,1015.82
2017-03-11T05:41:17.110Z,1015.83
2017-03-11T05:42:18.505Z,1015.83
2017-03-11T05:43:19.838Z,1015.84
2017-03-11T05:44:21.185Z,1015.86
2017-03-11T05:45:22.424Z,1015.88
2017-03-11T05:46:23.890Z,1015.86
2017-03-11T05:47:25.118Z,1015.83
2017-03-11T05:48:26.341Z,1015.84
2017-03-11T05:49:27.714Z,1015.87
2017-03-11T05:50:28.908Z,1015.86
2017-03-11T05:51:30.390Z,1015.85
2017-03-11T05:52:31.641Z,1015.92
2017-03-11T05:53:32.954Z,1015.9
2017-03-11T05:54:34.233Z,1015.92
2017-03-11T05:55:35.491Z,1015.94
2017-03-11T05:56:36.795Z,1015.89
2017-03-11T05:57:38.085Z,1015.89
2017-03-11T05:58:39.373Z,1015.93
2017-03-11T05:59:40.747Z,1015.93
2017-03-11T06:00:42.018Z,1015.94
2017-03-11T06:01:43.338Z,1015.95
2017-03-11T06:02:44.675Z,1015.96
2017-03-11T06:03:45.949Z,1015.93
2017-03-11T06:04:47.318Z,1015.94
2017-03-11T06:05:48.620Z,1015.92
2017-03-11T06:06:49.900Z,1015.94
2017-03-11T06:07:51.177Z,1015.95
2017-03-11T06:08:52.713Z,1015.97
2017-03-11T06:09:54.110Z,1015.96
2017-03-11T06:10:55.380Z,1015.91
2017-03-11T06:11:56.659Z,1015.92
2017-03-11T06:12:57.947Z,1015.93
2017-03-11T06:13:59.231Z,1015.91
2017-03-11T06:15:00.511Z,1015.93
2017-03-11T06:16:01.916Z,1015.95
2017-03-11T06:17:03.208Z,1015.93
2017-03-11T06:18:04.433Z,1015.95
2017-03-11T06:19:05.745Z,1015.91
2017-03-11T06:20:06.978Z,1015.89
2017-03-11T06:21:08.291Z,1015.95
2017-03-11T06:22:09.636Z,1015.94
2017-03-11T06:23:11.003Z,1015.94
2017-03-11T06:24:12.406Z,1015.95
2017-03-11T06:25:13.703Z,1016
2017-03-11T06:26:15.011Z,1015.97
2017-03-11T06:27:16.324Z,1015.97
2017-03-11T06:28:17.595Z,1015.98
2017-03-11T06:29:18.926Z,1016.03
2017-03-11T06:30:20.228Z,1015.97
2017-03-11T06:31:21.502Z,1016.01
2017-03-11T06:32:22.767Z,1016.06
2017-03-11T06:33:24.097Z,1016.06
2017-03-11T06:34:25.361Z,1016.04
2017-03-11T06:35:26.678Z,1016.08
2017-03-11T06:36:27.996Z,1016.03
2017-03-11T06:37:29.255Z,1016.04
2017-03-11T06:38:30.538Z,1016.08
2017-03-11T06:39:31.825Z,1016
2017-03-11T06:40:33.133Z,1016.05
2017-03-11T06:41:34.469Z,1016.03
2017-03-11T06:42:35.856Z,1016.02
2017-03-11T06:43:37.038Z,1016.02
2017-03-11T06:44:38.275Z,1015.98
2017-03-11T06:45:39.606Z,1016
2017-03-11T06:46:40.828Z,1015.98
2017-03-11T06:47:42.111Z,1015.98
2017-03-11T06:48:43.328Z,1015.96
2017-03-11T06:49:44.630Z,1015.96
2017-03-11T06:50:45.924Z,1015.91
2017-03-11T06:51:47.236Z,1015.96
2017-03-11T06:52:48.529Z,1015.92
2017-03-11T06:53:49.758Z,1015.96
2017-03-11T06:54:51.132Z,1015.94
2017-03-11T06:55:52.420Z,1015.97
2017-03-11T06:56:53.687Z,1015.98
2017-03-11T06:57:54.936Z,1015.99
2017-03-11T06:58:56.293Z,1015.99
2017-03-11T06:59:57.486Z,1015.92
2017-03-11T07:00:58.836Z,1015.99
2017-03-11T07:02:00.077Z,1016.02
2017-03-11T07:03:01.366Z,1016
2017-03-11T07:04:02.673Z,1015.99
2017-03-11T07:05:03.916Z,1016.04
2017-03-11T07:06:05.262Z,1016.02
2017-03-11T07:07:06.611Z,1016
2017-03-11T07:08:07.944Z,1016.01
2017-03-11T07:09:09.257Z,1015.99
2017-03-11T07:10:10.745Z,1016.04
2017-03-11T07:11:12.098Z,1016.03
2017-03-11T07:12:13.379Z,1016.08
2017-03-11T07:13:14.662Z,1016.09
2017-03-11T07:14:15.922Z,1016.04
2017-03-11T07:15:17.254Z,1016.06
2017-03-11T07:16:18.483Z,1016.06
2017-03-11T07:17:19.823Z,1016.06
2017-03-11T07:18:21.096Z,1016.03
2017-03-11T07:19:22.366Z,1015.99
2017-03-11T07:20:23.741Z,1015.98
2017-03-11T07:21:25.082Z,1015.91
2017-03-11T07:22:26.386Z,1015.91
2017-03-11T07:23:27.697Z,1015.89
2017-03-11T07:24:29.073Z,1015.93
2017-03-11T07:25:30.384Z,1015.89
2017-03-11T07:26:31.631Z,1015.89
2017-03-11T07:27:32.966Z,1015.89
2017-03-11T07:28:34.236Z,1015.91
2017-03-11T07:29:35.487Z,1015.93
2017-03-11T07:30:36.749Z,1015.95
2017-03-11T07:31:37.987Z,1015.98
2017-03-11T07:32:39.261Z,1015.95
2017-03-11T07:33:40.697Z,1015.94
2017-03-11T07:34:41.961Z,1015.98
2017-03-11T07:35:43.236Z,1015.97
2017-03-11T07:36:44.564Z,1015.95
2017-03-11T07:37:45.796Z,1015.91
2017-03-11T07:38:47.108Z,1015.91
2017-03-11T07:39:48.429Z,1016.01
2017-03-11T07:40:49.737Z,1016.05
2017-03-11T07:41:51.043Z,1015.98
2017-03-11T07:42:52.444Z,1016
2017-03-11T07:43:53.690Z,1015.94
2017-03-11T07:44:54.946Z,1015.9
2017-03-11T07:45:56.294Z,1015.89
2017-03-11T07:46:57.556Z,1015.89
2017-03-11T07:47:58.979Z,1015.87
2017-03-11T07:49:00.295Z,1015.89
2017-03-11T07:50:01.587Z,1015.85
2017-03-11T07:51:02.824Z,1015.85
2017-03-11T07:52:04.104Z,1015.84
2017-03-11T07:53:05.393Z,1015.89
2017-03-11T07:54:06.671Z,1015.88
2017-03-11T07:55:08.101Z,1015.92
2017-03-11T07:56:09.544Z,1015.91
2017-03-11T07:57:10.724Z,1015.93
2017-03-11T07:58:12.027Z,1015.88
2017-03-11T07:59:13.335Z,1015.88
2017-03-11T08:00:14.624Z,1015.92
2017-03-11T08:01:15.884Z,1015.91
2017-03-11T08:02:17.253Z,1015.93
2017-03-11T08:03:18.472Z,1015.95
2017-03-11T08:04:19.750Z,1015.94
2017-03-11T08:05:21.063Z,1015.93
2017-03-11T08:06:22.563Z,1015.94
2017-03-11T08:07:23.841Z,1015.91
2017-03-11T08:08:25.084Z,1015.97
2017-03-11T08:09:26.389Z,1015.94
2017-03-11T08:10:27.660Z,1016.02
2017-03-11T08:11:29.018Z,1016.02
2017-03-11T08:12:30.270Z,1016.04
2017-03-11T08:13:31.591Z,1016.09
2017-03-11T08:14:32.928Z,1016.07
2017-03-11T08:15:34.198Z,1016.13
2017-03-11T08:16:35.488Z,1016.07
2017-03-11T08:17:36.793Z,1016.1
2017-03-11T08:18:38.155Z,1016.08
2017-03-11T08:19:39.471Z,1016.04
2017-03-11T08:20:40.692Z,1016.07
2017-03-11T08:21:41.993Z,1016.06
2017-03-11T08:22:43.280Z,1016.08
2017-03-11T08:23:44.521Z,1016.11
2017-03-11T08:24:45.814Z,1016.13
2017-03-11T08:25:47.088Z,1016.11
2017-03-11T08:26:48.446Z,1016.14
2017-03-11T08:27:49.722Z,1016.12
2017-03-11T08:28:51.002Z,1016.11
2017-03-11T08:29:52.281Z,1016.07
2017-03-11T08:30:53.600Z,1016.1
2017-03-11T08:31:54.897Z,1016.12
2017-03-11T08:32:56.159Z,1016.09
2017-03-11T08:33:57.492Z,1016.07
2017-03-11T08:34:58.777Z,1016.11
2017-03-11T08:36:00.578Z,1016.06
2017-03-11T08:37:01.873Z,1016.06
2017-03-11T08:38:03.224Z,1016.07
2017-03-11T08:39:04.627Z,1016.07
2017-03-11T08:40:05.982Z,1016.11
2017-03-11T08:41:07.298Z,1016.12
2017-03-11T08:42:08.589Z,1016.1
2017-03-11T08:43:09.864Z,1016.07
2017-03-11T08:44:11.281Z,1016.06
2017-03-11T08:45:12.661Z,1016.09
2017-03-11T08:46:13.945Z,1016.1
2017-03-11T08:47:15.269Z,1016.1
2017-03-11T08:48:16.533Z,1016.18
2017-03-11T08:49:17.804Z,1016.17
2017-03-11T08:50:19.229Z,1016.22
2017-03-11T08:51:20.592Z,1016.26
2017-03-11T08:52:21.856Z,1016.2
2017-03-11T08:53:23.186Z,1016.15
2017-03-11T08:54:24.556Z,1016.14
2017-03-11T08:55:25.857Z,1016.11
2017-03-11T08:56:27.136Z,1016.11
2017-03-11T08:57:28.481Z,1016.08
2017-03-11T08:58:29.719Z,1016.07
2017-03-11T08:59:31.102Z,1016.11
2017-03-11T09:00:32.427Z,1016.08
2017-03-11T09:01:33.765Z,1016.11
2017-03-11T09:02:35.042Z,1016.08
2017-03-11T09:03:36.287Z,1016.06
2017-03-11T09:04:37.551Z,1016.06
2017-03-11T09:05:38.843Z,1016.11
2017-03-11T09:06:40.103Z,1016.09
2017-03-11T09:07:41.367Z,1016.09
2017-03-11T09:08:42.631Z,1016.13
2017-03-11T09:09:43.937Z,1016.13
2017-03-11T09:10:45.229Z,1016.14
2017-03-11T09:11:46.537Z,1016.22
2017-03-11T09:12:47.879Z,1016.12
2017-03-11T09:13:49.154Z,1016.16
2017-03-11T09:14:50.437Z,1016.14
2017-03-11T09:15:51.717Z,1016.13
2017-03-11T09:16:52.980Z,1016.11
2017-03-11T09:17:54.322Z,1016.09
2017-03-11T09:18:55.682Z,1016.08
2017-03-11T09:19:56.964Z,1016.04
2017-03-11T09:20:58.243Z,1016.01
2017-03-11T09:21:59.546Z,1016.05
2017-03-11T09:23:00.839Z,1016.08
2017-03-11T09:24:02.212Z,1016.02
2017-03-11T09:25:03.507Z,1016
2017-03-11T09:26:04.832Z,1016
2017-03-11T09:27:06.148Z,1016.01
2017-03-11T09:28:07.398Z,1015.95
2017-03-11T09:29:08.707Z,1016.02
2017-03-11T09:30:10.056Z,1015.97
2017-03-11T09:31:11.322Z,1016.09
2017-03-11T09:32:12.582Z,1016.05
2017-03-11T09:33:13.875Z,1016.02
2017-03-11T09:34:15.256Z,1015.97
2017-03-11T09:35:16.652Z,1015.92
2017-03-11T09:36:17.953Z,1015.87
2017-03-11T09:37:19.212Z,1015.83
2017-03-11T09:38:20.466Z,1015.82
2017-03-11T09:39:21.763Z,1015.79
2017-03-11T09:40:23.061Z,1015.79
2017-03-11T09:41:24.318Z,1015.85
2017-03-11T09:42:25.604Z,1015.86
2017-03-11T09:43:26.878Z,1015.83
2017-03-11T09:44:28.171Z,1015.9
2017-03-11T09:45:29.472Z,1015.94
2017-03-11T09:46:30.744Z,1015.96
2017-03-11T09:47:32.029Z,1015.93
2017-03-11T09:48:33.306Z,1015.94
2017-03-11T09:49:34.563Z,1015.95
2017-03-11T09:50:35.899Z,1015.91
2017-03-11T09:51:37.201Z,1015.95
2017-03-11T09:52:38.709Z,1015.95
2017-03-11T09:53:40.017Z,1015.95
2017-03-11T09:54:41.367Z,1015.9
2017-03-11T09:55:42.604Z,1015.85
2017-03-11T09:56:43.904Z,1015.73
2017-03-11T09:57:45.175Z,1015.69
2017-03-11T09:58:46.499Z,1015.68
2017-03-11T09:59:47.826Z,1015.61
2017-03-11T10:00:49.108Z,1015.61
2017-03-11T10:01:50.415Z,1015.65
2017-03-11T10:02:51.803Z,1015.68
2017-03-11T10:03:53.077Z,1015.76
2017-03-11T10:04:54.381Z,1015.69
2017-03-11T10:05:55.668Z,1015.69
2017-03-11T10:06:56.998Z,1015.65
2017-03-11T10:07:58.338Z,1015.61
2017-03-11T10:08:59.621Z,1015.65
2017-03-11T10:10:00.867Z,1015.58
2017-03-11T10:11:02.184Z,1015.47
2017-03-11T10:12:03.422Z,1015.52
2017-03-11T10:13:04.723Z,1015.52
2017-03-11T10:14:06.009Z,1015.6
2017-03-11T10:15:07.328Z,1015.57
2017-03-11T10:16:08.621Z,1015.58
2017-03-11T10:17:09.912Z,1015.57
2017-03-11T10:18:11.196Z,1015.63
2017-03-11T10:19:12.610Z,1015.56
2017-03-11T10:20:13.928Z,1015.59
2017-03-11T10:21:15.225Z,1015.59
2017-03-11T10:22:16.504Z,1015.61
2017-03-11T10:23:17.813Z,1015.6
2017-03-11T10:24:19.045Z,1015.6
2017-03-11T10:25:20.376Z,1015.62
2017-03-11T10:26:21.661Z,1015.61
2017-03-11T10:27:22.916Z,1015.63
2017-03-11T10:28:24.175Z,1015.64
2017-03-11T10:29:25.513Z,1015.55
2017-03-11T10:30:26.883Z,1015.57
2017-03-11T10:31:28.245Z,1015.57
2017-03-11T10:32:29.536Z,1015.56
2017-03-11T10:33:30.949Z,1015.51
2017-03-11T10:34:32.226Z,1015.47
2017-03-11T10:35:33.520Z,1015.48
2017-03-11T10:36:34.860Z,1015.49
2017-03-11T10:37:36.134Z,1015.51
2017-03-11T10:38:37.454Z,1015.46
2017-03-11T10:39:38.727Z,1015.45
2017-03-11T10:40:40.094Z,1015.49
2017-03-11T10:41:41.372Z,1015.47
2017-03-11T10:42:42.658Z,1015.44
2017-03-11T10:43:43.936Z,1015.49
2017-03-11T10:44:45.224Z,1015.42
2017-03-11T10:45:46.648Z,1015.38
2017-03-11T10:46:48.029Z,1015.38
2017-03-11T10:47:49.313Z,1015.38
2017-03-11T10:48:50.623Z,1015.39
2017-03-11T10:49:52.029Z,1015.4
2017-03-11T10:50:53.335Z,1015.37
2017-03-11T10:51:54.688Z,1015.37
2017-03-11T10:52:56.060Z,1015.34
2017-03-11T10:53:57.298Z,1015.31
2017-03-11T10:54:58.558Z,1015.33
2017-03-11T10:55:59.921Z,1015.31
2017-03-11T10:57:01.188Z,1015.26
2017-03-11T10:58:02.557Z,1015.31
2017-03-11T10:59:03.846Z,1015.3
2017-03-11T11:00:05.111Z,1015.32
2017-03-11T11:01:06.512Z,1015.29
2017-03-11T11:02:07.856Z,1015.3
2017-03-11T11:03:09.185Z,1015.26
2017-03-11T11:04:10.444Z,1015.27
2017-03-11T11:05:11.775Z,1015.28
2017-03-11T11:06:13.070Z,1015.23
2017-03-11T11:07:14.401Z,1015.27
2017-03-11T11:08:15.710Z,1015.26
2017-03-11T11:09:17.001Z,1015.29
2017-03-11T11:10:18.342Z,1015.3
2017-03-11T11:11:19.627Z,1015.27
2017-03-11T11:12:20.920Z,1015.26
2017-03-11T11:13:22.400Z,1015.22
2017-03-11T11:14:23.744Z,1015.18
2017-03-11T16:20:15.933Z,1012.71
2017-03-11T16:21:17.534Z,1012.65
2017-03-11T16:22:18.758Z,1012.65
2017-03-11T16:23:19.996Z,1012.62
2017-03-11T16:24:21.254Z,1012.63
2017-03-11T16:25:22.507Z,1012.68
2017-03-11T16:26:23.770Z,1012.66
2017-03-11T16:27:25.027Z,1012.69
2017-03-11T16:28:26.288Z,1012.65
2017-03-11T16:29:27.524Z,1012.61
2017-03-11T16:30:28.756Z,1012.65
2017-03-11T16:31:30.002Z,1012.63
2017-03-11T16:32:31.271Z,1012.62
2017-03-11T16:33:32.549Z,1012.62
2017-03-11T16:34:33.821Z,1012.68
2017-03-11T16:35:35.045Z,1012.62
2017-03-11T16:36:36.290Z,1012.66
2017-03-11T16:37:37.541Z,1012.66
2017-03-11T16:38:39.017Z,1012.65
2017-03-11T16:39:40.286Z,1012.65
2017-03-11T16:40:41.527Z,1012.64
2017-03-11T16:41:42.768Z,1012.65
2017-03-11T16:42:44.039Z,1012.68
2017-03-11T16:43:45.285Z,1012.67
2017-03-11T16:44:46.603Z,1012.67
2017-03-11T16:45:47.853Z,1012.66
2017-03-11T16:46:49.126Z,1012.7
2017-03-11T16:47:50.363Z,1012.65
2017-03-11T16:48:51.609Z,1012.71
2017-03-11T16:49:52.926Z,1012.66
2017-03-11T16:50:54.245Z,1012.74
2017-03-11T16:51:55.388Z,1012.71
2017-03-11T16:52:56.699Z,1012.68
2017-03-11T16:53:57.958Z,1012.71
2017-03-11T16:54:59.204Z,1012.69
2017-03-11T16:56:00.472Z,1012.7
2017-03-11T16:57:01.756Z,1012.71
2017-03-11T16:58:03.159Z,1012.7
2017-03-11T16:59:04.381Z,1012.71
2017-03-11T17:00:05.618Z,1012.68
2017-03-11T17:01:06.886Z,1012.73
2017-03-11T17:02:08.157Z,1012.65
2017-03-11T17:03:09.401Z,1012.65
2017-03-11T17:04:10.649Z,1012.65
2017-03-11T17:05:11.968Z,1012.64
2017-03-11T17:06:13.247Z,1012.64
2017-03-11T17:07:14.503Z,1012.65
2017-03-11T17:08:15.751Z,1012.66
2017-03-11T17:09:17.101Z,1012.67
2017-03-11T17:10:18.377Z,1012.65
2017-03-11T17:11:19.621Z,1012.66
2017-03-11T17:12:20.861Z,1012.65
2017-03-11T17:13:22.100Z,1012.68
2017-03-11T17:14:23.468Z,1012.72
2017-03-11T17:15:24.736Z,1012.72
2017-03-11T17:16:25.982Z,1012.7
2017-03-11T17:17:27.222Z,1012.7
2017-03-11T17:18:28.475Z,1012.68
2017-03-11T17:19:29.712Z,1012.73
2017-03-11T17:20:30.962Z,1012.74
2017-03-11T17:21:32.206Z,1012.73
2017-03-11T17:22:33.490Z,1012.78
2017-03-11T17:23:34.732Z,1012.74
2017-03-11T17:24:35.987Z,1012.73
2017-03-11T17:25:37.216Z,1012.71
2017-03-11T17:26:38.484Z,1012.77
2017-03-11T17:27:39.756Z,1012.76
2017-03-11T17:28:41.007Z,1012.81